Time;durP1;ratioP1;P1;durP2;ratioP2;P2;SDS_P1;SDS_P2;PMS_P1;PMS_P2;Temp;Humidity;BMP_temperature;BMP_pressure;BME280_temperature;BME280_humidity;BME280_pressure;Samples;Min_cycle;Max_cycle;Signal;HPM_P1;HPM_P2
2022/11/09 00:01:29;;;;;;;11.05;5.75;;;;;;;25.88;18.67;98257.75;6245728;23;20233;-79
2022/11/09 00:03:58;;;;;;;9.30;5.35;;;;;;;25.40;19.05;98255.75;6245948;22;20008;-79
2022/11/09 00:06:25;;;;;;;14.70;7.15;;;;;;;25.29;19.23;98265.69;6245719;22;20012;-79
2022/11/09 00:08:52;;;;;;;15.50;9.00;;;;;;;25.37;19.62;98256.63;6245896;22;20055;-79
2022/11/09 00:11:18;;;;;;;14.85;7.75;;;;;;;25.26;19.59;98261.72;6244989;22;20233;-79
2022/11/09 00:13:45;;;;;;;15.80;7.43;;;;;;;25.19;19.93;98255.47;6243733;22;20338;-79
2022/11/09 00:16:13;;;;;;;16.00;9.55;;;;;;;25.37;19.92;98258.63;6244299;22;20012;-79
2022/11/09 00:18:44;;;;;;;12.65;7.30;;;;;;;25.57;19.84;98256.59;6245933;22;20397;-80
2022/11/09 00:21:12;;;;;;;;;;;;;;;25.65;18.79;98254.38;6246481;22;19942;-80
2022/11/09 00:23:38;;;;;;;13.33;7.13;;;;;;;25.69;18.75;98261.50;6243823;22;19915;-79
2022/11/09 00:26:05;;;;;;;12.53;7.13;;;;;;;25.41;18.77;98256.56;6241367;23;20023;-79
2022/11/09 00:28:33;;;;;;;13.80;8.50;;;;;;;25.26;19.17;98258.13;6245189;22;20450;-79
2022/11/09 00:31:00;;;;;;;13.30;7.07;;;;;;;25.36;19.35;98259.88;6242074;22;20015;-79
2022/11/09 00:33:26;;;;;;;12.73;8.18;;;;;;;25.56;19.17;98254.19;6241622;23;20649;-79
2022/11/09 00:35:53;;;;;;;14.68;7.65;;;;;;;25.67;18.77;98254.72;6241433;23;20008;-79
2022/11/09 00:38:19;;;;;;;16.00;8.15;;;;;;;25.64;18.62;98258.41;6244767;22;20054;-80
2022/11/09 00:40:45;;;;;;;11.93;7.22;;;;;;;25.57;19.11;98256.59;6244050;22;20008;-80
2022/11/09 00:43:11;;;;;;;12.15;7.47;;;;;;;25.51;18.79;98251.94;6244179;23;19912;-80
2022/11/09 00:45:39;;;;;;;14.43;7.72;;;;;;;25.33;19.21;98258.75;6241825;23;20329;-80
2022/11/09 00:48:06;;;;;;;12.88;7.10;;;;;;;25.16;19.87;98251.50;6243696;22;20016;-80
2022/11/09 00:50:32;;;;;;;12.20;7.25;;;;;;;25.21;19.50;98248.19;6244563;22;20019;-80
2022/11/09 00:52:58;;;;;;;13.35;6.78;;;;;;;25.35;19.36;98253.47;6246007;22;20030;-80
2022/11/09 00:55:25;;;;;;;12.90;8.00;;;;;;;25.41;18.55;98254.50;6243514;22;20008;-80
2022/11/09 00:57:51;;;;;;;13.10;7.30;;;;;;;24.84;19.44;98257.06;6244414;23;20008;-80
2022/11/09 01:00:19;;;;;;;13.77;7.28;;;;;;;24.84;20.24;98259.09;6243708;22;20012;-80
2022/11/09 01:02:46;;;;;;;12.82;7.05;;;;;;;25.16;19.64;98256.34;6244215;22;19945;-80
2022/11/09 01:05:12;;;;;;;11.68;7.13;;;;;;;25.36;19.23;98260.69;6244136;22;20008;-80
2022/11/09 01:07:38;;;;;;;11.82;7.22;;;;;;;25.33;19.22;98263.56;6239970;23;20240;-80
2022/11/09 01:10:05;;;;;;;15.60;7.78;;;;;;;25.35;18.75;98261.09;6242785;23;20499;-80
2022/11/09 01:12:31;;;;;;;13.03;7.63;;;;;;;25.56;19.15;98257.00;6243099;22;20050;-80
2022/11/09 01:14:58;;;;;;;10.77;6.30;;;;;;;25.74;19.17;98260.19;6243076;22;19918;-80
2022/11/09 01:17:24;;;;;;;11.73;7.57;;;;;;;25.75;18.36;98256.91;6239056;23;20438;-80
2022/11/09 01:19:50;;;;;;;11.82;7.15;;;;;;;25.69;18.82;98252.25;6241643;23;20353;-80
2022/11/09 01:22:17;;;;;;;13.30;7.50;;;;;;;25.51;18.61;98246.31;6243201;23;20008;-79
2022/11/09 01:24:44;;;;;;;12.27;7.95;;;;;;;25.56;18.31;98254.97;6242543;22;19912;-80
2022/11/09 01:27:10;;;;;;;14.75;7.80;;;;;;;25.14;18.42;98253.97;6244863;23;20012;-80
2022/11/09 01:29:36;;;;;;;11.30;7.55;;;;;;;24.71;18.47;98242.88;6244169;23;20032;-80
2022/11/09 01:32:03;;;;;;;13.40;7.18;;;;;;;24.85;18.33;98250.25;6243521;23;20012;-80
2022/11/09 01:34:29;;;;;;;14.15;7.43;;;;;;;25.01;18.33;98243.88;6241129;23;20036;-79
2022/11/09 01:36:55;;;;;;;12.30;7.33;;;;;;;24.75;18.34;98237.19;6242028;22;20047;-79
2022/11/09 01:39:21;;;;;;;11.85;6.88;;;;;;;24.75;19.33;98234.38;6242466;23;19912;-79
2022/11/09 01:41:48;;;;;;;11.95;6.78;;;;;;;24.77;18.86;98231.97;6244116;23;20031;-79
2022/11/09 01:44:19;;;;;;;9.90;5.43;;;;;;;24.78;19.07;98230.75;6243325;23;20011;-79
2022/11/09 01:46:53;;;;;;;;;;;;;;;24.64;19.50;98231.78;6242687;22;20016;-79
2022/11/09 01:49:25;;;;;;;12.35;6.88;;;;;;;24.75;18.95;98225.97;6242694;22;19981;-79
2022/11/09 01:52:08;;;;;;;11.75;6.32;;;;;;;25.01;18.57;98229.81;6242850;23;20038;-79
2022/11/09 01:54:39;;;;;;;11.52;6.20;;;;;;;25.26;18.25;98224.38;6244246;22;20084;-79
2022/11/09 01:57:10;;;;;;;11.73;6.68;;;;;;;25.04;18.72;98218.47;6244000;22;20027;-79
2022/11/09 01:59:41;;;;;;;10.55;5.53;;;;;;;24.98;18.82;98216.63;6243799;22;20377;-79
2022/11/09 02:02:09;;;;;;;10.13;5.93;;;;;;;24.74;19.33;98210.31;6243512;22;20004;-79
2022/11/09 02:04:48;;;;;;;8.98;5.60;;;;;;;24.65;19.05;98215.75;6242012;23;20008;-79
2022/11/09 02:07:14;;;;;;;13.55;6.93;;;;;;;24.94;18.53;98213.94;6243476;22;20008;-79
2022/11/09 02:10:05;;;;;;;8.80;5.55;;;;;;;24.93;18.72;98217.94;6244899;23;20393;-79
2022/11/09 02:12:33;;;;;;;11.77;6.33;;;;;;;25.04;18.48;98218.47;6245642;22;20065;-79
2022/11/09 02:15:05;;;;;;;12.45;6.47;;;;;;;25.26;18.50;98218.75;6245051;22;20016;-79
2022/11/09 02:17:33;;;;;;;10.57;6.28;;;;;;;25.18;18.10;98223.75;6244840;22;20319;-79
2022/11/09 02:19:59;;;;;;;11.70;5.88;;;;;;;25.32;17.87;98223.41;6244940;22;20122;-79
2022/11/09 02:22:25;;;;;;;14.50;6.88;;;;;;;25.18;18.27;98211.75;6244120;23;20004;-79
2022/11/09 02:24:52;;;;;;;10.90;5.93;;;;;;;24.68;19.03;98214.88;6246690;23;20012;-79
2022/11/09 02:27:18;;;;;;;9.18;3.97;;;;;;;24.16;19.65;98217.59;6243090;23;20442;-79
2022/11/09 02:29:47;;;;;;;11.45;5.20;;;;;;;24.24;19.73;98223.84;6244459;23;20011;-79
2022/11/09 02:32:20;;;;;;;9.70;5.38;;;;;;;24.29;19.78;98215.72;6244087;22;20103;-79
2022/11/09 02:34:46;;;;;;;9.70;5.60;;;;;;;24.43;19.20;98207.03;6245108;22;20008;-79
2022/11/09 02:37:12;;;;;;;6.90;4.05;;;;;;;24.62;19.63;98213.84;6244059;23;20442;-78
2022/11/09 02:39:38;;;;;;;6.57;4.28;;;;;;;24.99;19.39;98209.81;6243650;22;20016;-79
2022/11/09 02:42:11;;;;;;;9.23;4.55;;;;;;;25.22;18.79;98209.63;6243949;23;20036;-79
2022/11/09 02:44:46;;;;;;;7.43;4.03;;;;;;;25.38;18.20;98213.25;6245268;22;20015;-79
2022/11/09 02:47:12;;;;;;;11.02;5.28;;;;;;;24.51;18.80;98210.44;6243621;22;20027;-79
2022/11/09 02:49:38;;;;;;;6.40;4.25;;;;;;;24.15;19.28;98207.59;6243912;23;19915;-78
2022/11/09 02:52:04;;;;;;;5.80;3.95;;;;;;;24.00;19.79;98209.06;6243280;23;20011;-79
2022/11/09 02:54:30;;;;;;;7.90;3.90;;;;;;;23.90;20.09;98205.25;6243411;23;20146;-79
2022/11/09 02:56:57;;;;;;;8.73;4.40;;;;;;;24.30;19.39;98202.47;6243557;23;19911;-79
2022/11/09 02:59:23;;;;;;;8.27;4.63;;;;;;;24.34;19.19;98201.16;6243863;23;20008;-79
2022/11/09 03:01:49;;;;;;;8.02;4.35;;;;;;;24.58;19.05;98205.47;6244372;23;19946;-79
2022/11/09 03:04:15;;;;;;;8.07;4.53;;;;;;;24.85;18.93;98207.31;6245458;23;19907;-79
2022/11/09 03:06:41;;;;;;;10.15;5.43;;;;;;;25.13;18.33;98206.66;6244225;23;20005;-79
2022/11/09 03:09:09;;;;;;;6.88;4.00;;;;;;;25.13;18.45;98206.66;6243831;23;19990;-79
2022/11/09 03:11:36;;;;;;;8.52;4.20;;;;;;;25.20;18.05;98201.66;6241715;22;20330;-79
2022/11/09 03:14:02;;;;;;;7.43;4.25;;;;;;;25.26;18.31;98204.72;6243019;22;20087;-79
2022/11/09 03:16:29;;;;;;;9.40;4.78;;;;;;;25.03;18.33;98204.88;6245809;22;20485;-79
2022/11/09 03:18:56;;;;;;;8.40;4.40;;;;;;;24.81;18.69;98218.63;6244197;23;20055;-79
2022/11/09 03:21:23;;;;;;;7.35;4.40;;;;;;;24.54;18.76;98203.97;6244588;22;20038;-79
2022/11/09 03:23:49;;;;;;;10.07;4.50;;;;;;;24.69;18.69;98205.25;6243135;22;20032;-79
2022/11/09 03:26:16;;;;;;;7.57;4.20;;;;;;;24.98;18.25;98206.19;6241380;23;20012;-79
2022/11/09 03:28:42;;;;;;;6.93;3.88;;;;;;;25.00;18.15;98208.56;6245280;22;20066;-79
2022/11/09 03:31:08;;;;;;;9.18;4.47;;;;;;;25.06;18.07;98204.00;6245120;23;20019;-79
2022/11/09 03:33:34;;;;;;;6.50;3.63;;;;;;;25.06;17.85;98198.41;6244818;23;20015;-79
2022/11/09 03:36:01;;;;;;;5.57;3.03;;;;;;;25.07;18.15;98202.78;6242605;23;20031;-79
2022/11/09 03:38:27;;;;;;;5.85;3.70;;;;;;;24.95;18.37;98204.25;6243872;23;20012;-79
2022/11/09 03:40:53;;;;;;;9.13;4.28;;;;;;;24.97;18.67;98204.59;6243547;23;20035;-79
2022/11/09 03:43:19;;;;;;;7.47;4.00;;;;;;;25.17;18.24;98199.72;6243927;23;20004;-79
2022/11/09 03:45:46;;;;;;;7.10;3.83;;;;;;;25.30;17.62;98202.59;6243025;23;20019;-79
2022/11/09 03:48:12;;;;;;;8.32;4.13;;;;;;;25.36;17.50;98207.28;6243887;22;20449;-79
2022/11/09 03:50:39;;;;;;;8.02;4.15;;;;;;;25.08;17.53;98195.94;6245038;23;20015;-79
2022/11/09 03:53:07;;;;;;;6.65;3.58;;;;;;;24.95;17.37;98200.69;6245377;22;19912;-79
2022/11/09 03:55:33;;;;;;;5.65;3.80;;;;;;;24.19;17.99;98205.50;6245590;22;20016;-79
2022/11/09 03:57:59;;;;;;;7.75;4.18;;;;;;;24.17;18.14;98201.56;6244728;23;20016;-79
2022/11/09 04:00:25;;;;;;;8.77;3.60;;;;;;;23.27;18.46;98203.56;6243391;23;19908;-79
2022/11/09 04:02:52;;;;;;;6.10;3.97;;;;;;;23.47;18.64;98200.84;6244991;22;20011;-79
2022/11/09 04:05:18;;;;;;;9.05;4.75;;;;;;;22.53;19.66;98204.66;6244639;23;20087;-79
2022/11/09 04:07:51;;;;;;;6.30;3.97;;;;;;;23.07;19.20;98206.28;6244321;22;20012;-78
2022/11/09 04:10:18;;;;;;;10.52;4.43;;;;;;;22.86;19.91;98209.41;6244487;22;20136;-79
2022/11/09 04:12:44;;;;;;;7.72;4.10;;;;;;;23.34;19.35;98200.63;6243717;22;19947;-79
2022/11/09 04:15:11;;;;;;;10.85;4.20;;;;;;;23.81;19.08;98196.59;6242937;23;20454;-80
2022/11/09 04:17:37;;;;;;;5.57;3.15;;;;;;;24.09;18.71;98202.91;6244406;22;20099;-79
2022/11/09 04:20:05;;;;;;;5.35;3.25;;;;;;;24.29;18.26;98192.50;6243796;23;19923;-79
2022/11/09 04:22:31;;;;;;;4.38;2.72;;;;;;;24.26;18.28;98188.53;6242739;22;20027;-79
2022/11/09 04:24:57;;;;;;;5.35;3.10;;;;;;;24.54;18.16;98187.91;6242339;23;20030;-79
2022/11/09 04:27:23;;;;;;;5.07;3.25;;;;;;;24.34;18.30;98192.75;6241870;23;20032;-79
2022/11/09 04:29:49;;;;;;;8.70;3.55;;;;;;;24.17;18.51;98190.34;6243304;23;20008;-79
2022/11/09 04:32:15;;;;;;;6.07;3.38;;;;;;;24.33;18.67;98188.38;6243276;23;20448;-79
2022/11/09 04:34:41;;;;;;;6.25;3.38;;;;;;;24.24;18.56;98185.38;6242839;23;19911;-79
2022/11/09 04:37:08;;;;;;;5.13;3.33;;;;;;;24.44;18.33;98179.72;6242558;23;20015;-79
2022/11/09 04:39:35;;;;;;;7.13;2.78;;;;;;;24.67;18.18;98191.63;6243767;22;20016;-79
2022/11/09 04:42:01;;;;;;;6.50;2.63;;;;;;;24.59;17.94;98183.81;6243299;22;20618;-79
2022/11/09 04:44:28;;;;;;;5.03;3.03;;;;;;;24.57;18.38;98187.06;6243580;22;20008;-79
2022/11/09 04:46:54;;;;;;;3.72;2.92;;;;;;;24.68;18.58;98181.19;6243093;22;20020;-79
2022/11/09 04:49:20;;;;;;;5.38;2.97;;;;;;;24.63;18.54;98185.31;6243405;23;19958;-79
2022/11/09 04:51:46;;;;;;;4.13;2.58;;;;;;;24.82;17.91;98189.31;6241285;23;19919;-79
2022/11/09 04:54:13;;;;;;;5.55;2.65;;;;;;;24.96;17.87;98185.38;6242731;23;20426;-79
2022/11/09 04:56:39;;;;;;;9.32;3.70;;;;;;;24.84;18.11;98194.50;6243677;23;20012;-79
2022/11/09 04:59:06;;;;;;;6.20;3.10;;;;;;;24.69;18.20;98191.22;6242047;23;20020;-79
2022/11/09 05:01:32;;;;;;;5.30;3.17;;;;;;;24.71;18.12;98197.19;6244070;23;20062;-79
2022/11/09 05:03:58;;;;;;;6.40;3.20;;;;;;;24.67;18.02;98185.22;6245528;23;20004;-79
2022/11/09 05:06:32;;;;;;;5.50;3.05;;;;;;;24.88;17.74;98184.00;6241433;23;19920;-79
2022/11/09 05:09:01;;;;;;;7.20;3.30;;;;;;;24.37;17.88;98186.28;6244054;23;19922;-79
2022/11/09 05:11:28;;;;;;;6.55;2.90;;;;;;;24.46;17.99;98177.25;6243586;22;19943;-79
2022/11/09 05:13:54;;;;;;;8.30;3.40;;;;;;;24.70;17.58;98178.72;6243460;22;20058;-79
2022/11/09 05:16:21;;;;;;;5.57;3.42;;;;;;;24.76;17.55;98179.03;6242108;23;20059;-79
2022/11/09 05:18:48;;;;;;;6.63;3.23;;;;;;;24.95;17.25;98176.16;6241806;22;20407;-79
2022/11/09 05:21:14;;;;;;;4.40;2.40;;;;;;;24.81;17.53;98179.31;6242169;22;20035;-79
2022/11/09 05:23:59;;;;;;;4.22;2.20;;;;;;;24.46;17.82;98180.06;6243033;23;20373;-79
2022/11/09 05:26:36;;;;;;;4.38;2.70;;;;;;;24.41;18.14;98178.56;6240580;23;19970;-79
2022/11/09 05:29:08;;;;;;;4.87;3.00;;;;;;;23.96;18.95;98183.09;6242749;22;20047;-79
2022/11/09 05:31:35;;;;;;;4.82;2.75;;;;;;;23.97;18.78;98184.69;6242496;22;19911;-79
2022/11/09 05:34:02;;;;;;;6.32;3.10;;;;;;;24.03;18.63;98183.78;6243326;22;20430;-78
2022/11/09 05:36:29;;;;;;;4.00;1.97;;;;;;;23.68;19.70;98187.25;6242798;22;20091;-79
2022/11/09 05:38:56;;;;;;;3.55;2.00;;;;;;;23.76;19.91;98183.06;6241887;22;20016;-79
2022/11/09 05:41:22;;;;;;;7.70;3.05;;;;;;;24.23;19.41;98180.97;6242658;23;20011;-79
2022/11/09 05:43:49;;;;;;;6.65;2.85;;;;;;;24.62;18.90;98180.13;6243784;23;20074;-80
2022/11/09 05:46:16;;;;;;;4.80;2.85;;;;;;;24.91;18.39;98178.28;6241480;22;20016;-80
2022/11/09 05:48:43;;;;;;;5.53;2.67;;;;;;;25.06;18.32;98173.13;6244038;22;20093;-79
2022/11/09 05:51:11;;;;;;;4.15;2.80;;;;;;;24.92;17.96;98181.88;6246227;22;20008;-78
2022/11/09 05:53:37;;;;;;;3.90;2.50;;;;;;;25.02;18.43;98181.59;6245994;22;20083;-79
2022/11/09 05:56:11;;;;;;;5.38;2.78;;;;;;;24.91;18.61;98183.88;6245393;22;20019;-79
2022/11/09 05:58:38;;;;;;;3.72;2.63;;;;;;;24.97;18.51;98184.16;6245554;22;20105;-79
2022/11/09 06:01:06;;;;;;;5.18;2.65;;;;;;;25.10;18.28;98190.66;6247285;22;20035;-79
2022/11/09 06:03:33;;;;;;;3.28;2.55;;;;;;;25.07;18.33;98186.72;6246600;22;19910;-79
2022/11/09 06:06:04;;;;;;;3.90;2.35;;;;;;;25.29;18.23;98190.59;6244764;23;20449;-79
2022/11/09 06:08:31;;;;;;;3.80;2.25;;;;;;;25.39;17.82;98191.56;6243836;22;20024;-79
2022/11/09 06:10:59;;;;;;;3.78;2.42;;;;;;;25.50;17.82;98197.72;6244289;23;20434;-79
2022/11/09 06:13:26;;;;;;;5.57;2.47;;;;;;;25.60;17.97;98193.06;6243768;22;20000;-79
2022/11/09 06:15:56;;;;;;;6.95;3.13;;;;;;;25.58;18.12;98201.13;6244780;22;20008;-79
2022/11/09 06:18:24;;;;;;;13.20;4.68;;;;;;;25.74;18.00;98201.13;6245454;22;20427;-79
2022/11/09 06:20:55;;;;;;;10.07;3.55;;;;;;;25.74;17.93;98201.13;6244360;22;20031;-79
2022/11/09 06:23:28;;;;;;;;;;;;;;;25.79;17.68;98203.41;6247700;22;20004;-79
2022/11/09 06:26:08;;;;;;;8.98;3.28;;;;;;;26.04;17.11;98197.88;6247573;22;19990;-79
2022/11/09 06:28:35;;;;;;;6.47;2.65;;;;;;;25.94;17.09;98204.56;6247235;22;20012;-79
2022/11/09 06:31:03;;;;;;;7.28;3.72;;;;;;;26.03;17.37;98207.53;6247295;22;20058;-79
2022/11/09 06:33:30;;;;;;;8.05;3.78;;;;;;;26.13;17.35;98211.31;6245316;23;20016;-79
2022/11/09 06:35:57;;;;;;;6.72;4.18;;;;;;;25.95;17.88;98217.41;6245519;22;20445;-79
2022/11/09 06:38:27;;;;;;;6.40;3.70;;;;;;;25.73;18.29;98213.59;6246503;22;20448;-79
2022/11/09 06:40:55;;;;;;;9.48;4.78;;;;;;;25.85;17.96;98221.28;6245481;22;20005;-79
2022/11/09 06:43:22;;;;;;;9.35;3.50;;;;;;;24.94;17.96;98213.94;6246454;22;20008;-80
2022/11/09 06:45:48;;;;;;;5.50;3.47;;;;;;;24.93;18.55;98217.94;6245255;22;20453;-79
2022/11/09 06:48:15;;;;;;;5.63;3.58;;;;;;;25.37;18.08;98216.47;6245145;22;20373;-79
2022/11/09 06:50:41;;;;;;;6.75;3.40;;;;;;;25.01;18.14;98210.16;6244673;23;20011;-79
2022/11/09 06:53:10;;;;;;;5.05;3.13;;;;;;;24.96;18.52;98217.09;6245328;23;20008;-79
2022/11/09 06:55:36;;;;;;;7.10;3.65;;;;;;;24.74;18.68;98210.31;6245425;22;20066;-79
2022/11/09 06:58:14;;;;;;;6.65;4.75;;;;;;;24.49;19.08;98216.50;6245467;23;20016;-79
2022/11/09 07:00:44;;;;;;;9.98;6.28;;;;;;;24.63;19.40;98212.59;6243828;22;20008;-79
2022/11/09 07:03:15;;;;;;;7.95;5.13;;;;;;;25.06;18.98;98209.63;6244790;23;20012;-79
2022/11/09 07:05:42;;;;;;;7.25;4.97;;;;;;;25.55;18.46;98208.44;6245169;22;20038;-79
2022/11/09 07:08:08;;;;;;;8.68;5.70;;;;;;;25.91;17.98;98213.88;6245028;22;20012;-79
2022/11/09 07:10:34;;;;;;;9.20;5.93;;;;;;;25.96;17.96;98208.53;6245013;23;20019;-79
2022/11/09 07:13:02;;;;;;;9.35;5.53;;;;;;;25.93;18.27;98211.41;6244923;23;20094;-79
2022/11/09 07:15:28;;;;;;;9.60;5.72;;;;;;;26.06;18.57;98206.66;6244857;22;19908;-79
2022/11/09 07:17:59;;;;;;;8.98;5.70;;;;;;;25.81;18.98;98207.31;6245236;23;20019;-79
2022/11/09 07:20:25;;;;;;;;;;;;;;;25.97;18.51;98203.69;6245993;22;20319;-79
2022/11/09 07:22:52;;;;;;;11.18;5.93;;;;;;;26.44;18.63;98209.63;6245555;22;19910;-79
2022/11/09 07:25:18;;;;;;;10.70;5.72;;;;;;;26.56;18.78;98201.19;6245115;23;20015;-79
2022/11/09 07:27:45;;;;;;;10.27;6.72;;;;;;;26.01;19.27;98207.97;6244718;22;19907;-79
2022/11/09 07:30:11;;;;;;;9.15;5.70;;;;;;;25.62;20.08;98204.66;6244926;23;20381;-79
2022/11/09 07:32:38;;;;;;;7.35;4.70;;;;;;;25.87;20.48;98207.56;6245494;22;20492;-79
2022/11/09 07:35:05;;;;;;;9.43;5.50;;;;;;;26.27;20.13;98210.91;6245017;22;20008;-79
2022/11/09 07:37:32;;;;;;;9.27;5.15;;;;;;;26.63;19.69;98212.22;6244860;22;20008;-79
2022/11/09 07:39:58;;;;;;;7.13;4.60;;;;;;;27.10;19.43;98212.41;6245144;23;20071;-79
2022/11/09 07:42:24;;;;;;;8.25;5.57;;;;;;;27.42;19.47;98208.59;6244273;23;20044;-79
2022/11/09 07:44:51;;;;;;;16.33;10.23;;;;;;;27.21;19.74;98206.44;6190801;23;1213054;-79
2022/11/09 07:47:18;;;;;;;10.68;6.57;;;;;;;27.23;19.86;98206.78;6246222;23;19969;-79
2022/11/09 07:49:45;;;;;;;13.30;8.10;;;;;;;27.54;19.93;98204.94;6246882;22;20002;-79
2022/11/09 07:52:11;;;;;;;9.20;6.05;;;;;;;27.84;19.69;98207.09;6246575;22;20012;-79
2022/11/09 07:54:38;;;;;;;10.60;6.85;;;;;;;28.16;19.45;98216.50;6246250;22;20482;-79
2022/11/09 07:57:05;;;;;;;14.00;6.88;;;;;;;28.18;19.68;98205.53;6245852;23;20346;-79
2022/11/09 07:59:31;;;;;;;8.27;5.90;;;;;;;28.04;20.04;98199.16;6245724;22;20028;-79
2022/11/09 08:01:57;;;;;;;8.45;4.93;;;;;;;28.01;20.02;98196.44;6246175;23;19907;-79
2022/11/09 08:04:24;;;;;;;9.05;5.47;;;;;;;27.94;20.09;98200.28;6246199;22;20004;-79
2022/11/09 08:06:53;;;;;;;8.13;5.82;;;;;;;27.68;20.80;98198.78;6244523;23;20342;-79
2022/11/09 08:09:19;;;;;;;7.30;5.00;;;;;;;27.78;20.79;98197.66;6246444;23;20091;-79
2022/11/09 08:11:45;;;;;;;7.30;4.47;;;;;;;28.18;20.60;98195.03;6245417;23;20004;-79
2022/11/09 08:14:12;;;;;;;5.88;4.43;;;;;;;28.39;20.63;98190.63;6245845;23;20035;-79
2022/11/09 08:16:38;;;;;;;7.55;3.88;;;;;;;28.89;20.26;98179.00;6246330;22;20370;-79
2022/11/09 08:19:04;;;;;;;6.60;3.78;;;;;;;28.86;20.48;98185.59;6245823;23;20020;-79
2022/11/09 08:21:30;;;;;;;6.97;3.70;;;;;;;28.79;20.63;98185.06;6246589;23;20030;-79
2022/11/09 08:23:56;;;;;;;6.57;4.45;;;;;;;28.89;20.70;98186.69;6245958;23;20438;-79
2022/11/09 08:26:22;;;;;;;6.03;4.25;;;;;;;29.01;20.81;98174.50;6245612;23;20004;-79
2022/11/09 08:28:48;;;;;;;4.65;3.30;;;;;;;29.21;20.48;98178.53;6245844;23;20344;-79
2022/11/09 08:31:14;;;;;;;3.78;3.10;;;;;;;29.70;19.99;98174.84;6245999;23;20008;-79
2022/11/09 08:33:40;;;;;;;4.68;2.58;;;;;;;30.12;19.92;98175.81;6246023;23;20024;-79
2022/11/09 08:36:15;;;;;;;4.85;3.20;;;;;;;30.37;20.08;98177.53;6246097;23;20061;-79
2022/11/09 08:38:43;;;;;;;4.28;2.72;;;;;;;30.28;18.80;98183.19;6245444;22;20016;-80
2022/11/09 08:41:11;;;;;;;3.97;2.67;;;;;;;30.19;19.21;98169.84;6245786;22;20378;-80
2022/11/09 08:43:37;;;;;;;4.43;3.13;;;;;;;29.49;20.72;98172.91;6245396;22;20012;-80
2022/11/09 08:46:03;;;;;;;3.35;2.45;;;;;;;29.82;20.64;98168.28;6243681;23;20453;-80
2022/11/09 08:48:30;;;;;;;3.85;2.70;;;;;;;29.65;20.74;98173.41;6245410;23;20019;-80
2022/11/09 08:50:58;;;;;;;4.10;3.00;;;;;;;29.16;21.56;98170.63;6245492;23;20039;-80
2022/11/09 08:53:26;;;;;;;4.60;2.75;;;;;;;29.59;21.06;98168.84;6246043;22;20015;-80
2022/11/09 08:55:52;;;;;;;3.47;2.58;;;;;;;29.18;21.60;98165.31;6245266;22;20449;-80
2022/11/09 08:58:19;;;;;;;3.75;2.30;;;;;;;28.51;22.45;98170.78;6245363;23;20008;-80
2022/11/09 09:00:45;;;;;;;2.55;2.22;;;;;;;28.96;22.12;98169.44;6243712;22;20377;-80
2022/11/09 09:03:11;;;;;;;3.85;2.08;;;;;;;27.48;23.54;98163.66;6245653;23;20015;-80
2022/11/09 09:05:38;;;;;;;4.05;2.92;;;;;;;27.31;23.72;98169.41;6246202;23;20008;-80
2022/11/09 09:08:05;;;;;;;4.18;2.20;;;;;;;28.51;22.40;98173.59;6244893;23;20039;-80
2022/11/09 09:10:34;;;;;;;3.78;2.15;;;;;;;29.09;22.10;98165.25;6244992;22;20008;-78
2022/11/09 09:13:01;;;;;;;2.25;1.92;;;;;;;29.78;22.19;98174.06;6245161;22;20004;-78
2022/11/09 09:15:27;;;;;;;2.97;2.30;;;;;;;29.78;21.28;98162.75;6244267;23;20346;-78
2022/11/09 09:17:53;;;;;;;3.47;2.58;;;;;;;29.78;21.35;98168.41;6247080;22;20012;-78
2022/11/09 09:20:19;;;;;;;3.50;2.35;;;;;;;30.31;20.44;98159.59;6247543;23;19919;-78
2022/11/09 09:22:45;;;;;;;3.67;2.53;;;;;;;30.04;21.25;98164.03;6247129;23;20015;-78
2022/11/09 09:25:11;;;;;;;2.70;1.88;;;;;;;30.18;21.67;98156.91;6247700;23;20008;-78
2022/11/09 09:27:37;;;;;;;3.00;2.10;;;;;;;30.52;20.59;98153.75;6247780;23;19908;-79
2022/11/09 09:30:04;;;;;;;2.85;1.95;;;;;;;30.90;20.35;98158.81;6247606;23;20008;-79
2022/11/09 09:32:30;;;;;;;2.70;2.25;;;;;;;31.06;20.47;98152.00;6245067;23;20296;-79
2022/11/09 09:34:56;;;;;;;2.95;2.00;;;;;;;31.08;20.71;98149.47;6247698;23;19907;-79
2022/11/09 09:37:22;;;;;;;5.00;2.08;;;;;;;31.16;20.23;98147.84;6247730;23;19915;-79
2022/11/09 09:39:49;;;;;;;3.03;1.88;;;;;;;31.28;20.19;98147.63;6246769;23;19907;-79
2022/11/09 09:42:23;;;;;;;2.50;1.75;;;;;;;31.67;20.78;98145.63;6246837;22;19919;-78
2022/11/09 09:45:03;;;;;;;3.60;2.10;;;;;;;32.19;19.29;98146.16;6247349;22;19916;-79
2022/11/09 09:48:02;;;;;;;3.50;2.72;;;;;;;31.44;19.21;98148.50;6247588;22;19920;-79
2022/11/09 09:50:49;;;;;;;2.45;2.00;;;;;;;31.24;20.79;98141.34;6247593;22;20012;-79
2022/11/09 09:53:21;;;;;;;2.20;1.83;;;;;;;31.52;19.90;98138.34;6224951;22;20367;-79
2022/11/09 09:55:55;;;;;;;2.45;1.83;;;;;;;31.41;19.47;98131.13;6247248;23;20337;-79
2022/11/09 09:58:27;;;;;;;1.77;1.50;;;;;;;31.63;20.49;98124.38;6247322;22;20040;-79
2022/11/09 10:01:02;;;;;;;1.40;1.30;;;;;;;31.79;20.81;98123.94;6246585;22;19930;-79
2022/11/09 10:03:28;;;;;;;1.95;1.50;;;;;;;31.18;20.22;98125.47;6246758;22;19966;-79
2022/11/09 10:06:18;;;;;;;2.40;1.88;;;;;;;31.17;20.48;98123.88;6245469;23;19911;-79
2022/11/09 10:08:59;;;;;;;1.40;1.27;;;;;;;31.89;20.08;98123.38;6247526;22;19918;-79
2022/11/09 10:11:45;;;;;;;1.30;1.20;;;;;;;30.34;21.28;98136.78;6247114;23;20422;-79
2022/11/09 10:14:23;;;;;;;1.65;1.40;;;;;;;30.60;20.91;98140.00;6247024;22;20004;-79
2022/11/09 10:17:14;;;;;;;2.42;1.60;;;;;;;30.30;21.74;98141.00;6247037;23;20233;-79
2022/11/09 10:19:57;;;;;;;2.03;1.80;;;;;;;30.35;23.13;98137.56;6245369;23;19912;-79
2022/11/09 10:22:48;;;;;;;2.33;1.90;;;;;;;30.08;22.70;98130.66;6247576;22;19931;-79
2022/11/09 10:25:26;;;;;;;2.28;2.08;;;;;;;30.57;21.66;98132.47;6245918;23;19918;-79
2022/11/09 10:27:58;;;;;;;2.58;1.70;;;;;;;30.65;22.55;98136.53;6247176;22;19942;-79
2022/11/09 10:30:27;;;;;;;3.20;2.45;;;;;;;29.29;24.86;98134.53;6247079;22;20248;-79
2022/11/09 10:33:10;;;;;;;6.97;4.85;;;;;;;27.16;27.46;98131.69;6246793;22;19914;-79
2022/11/09 10:35:58;;;;;;;7.18;4.88;;;;;;;25.83;28.76;98137.38;6246813;22;19943;-79
2022/11/09 10:38:40;;;;;;;4.63;3.97;;;;;;;24.93;29.11;98142.09;6225614;22;19912;-79
2022/11/09 10:41:27;;;;;;;11.55;7.00;;;;;;;24.45;30.38;98139.22;6220791;23;19926;-79
2022/11/09 10:43:53;;;;;;;12.23;7.13;;;;;;;24.39;33.72;98138.13;6246428;23;19912;-79
2022/11/09 10:46:20;;;;;;;11.55;7.93;;;;;;;24.21;33.04;98137.72;6246852;23;19911;-81
2022/11/09 10:48:46;;;;;;;10.32;6.53;;;;;;;24.76;32.25;98132.09;6247020;22;19966;-79
2022/11/09 10:51:39;;;;;;;11.38;7.95;;;;;;;25.54;28.53;98136.56;6246327;23;19982;-79
2022/11/09 10:54:23;;;;;;;12.25;8.27;;;;;;;24.77;29.56;98139.28;6241447;22;19908;-79
2022/11/09 10:57:10;;;;;;;8.52;6.38;;;;;;;26.76;27.61;98133.41;6246772;22;20330;-79
2022/11/09 10:59:44;;;;;;;7.45;5.53;;;;;;;26.59;29.96;98138.31;6246894;22;19982;-79
2022/11/09 11:02:25;;;;;;;8.23;6.43;;;;;;;26.34;27.96;98141.13;6247088;22;19953;-79
2022/11/09 11:05:12;;;;;;;11.40;6.85;;;;;;;24.90;32.06;98142.22;6247084;23;19922;-79
2022/11/09 11:07:38;;;;;;;7.80;5.55;;;;;;;25.77;28.63;98149.56;6245747;23;19910;-79
2022/11/09 11:10:16;;;;;;;8.40;6.07;;;;;;;26.87;27.29;98127.41;6246229;23;19918;-79
2022/11/09 11:12:53;;;;;;;7.05;5.00;;;;;;;27.69;26.53;98129.84;6246664;23;19935;-79
2022/11/09 11:15:37;;;;;;;6.28;4.72;;;;;;;26.61;27.96;98130.22;6246826;22;20273;-80
2022/11/09 11:18:12;;;;;;;6.18;5.20;;;;;;;26.54;28.50;98129.63;6246563;22;20318;-79
2022/11/09 11:20:38;;;;;;;6.22;5.07;;;;;;;27.25;27.65;98134.59;6246656;22;19907;-79
2022/11/09 11:23:20;;;;;;;9.57;5.60;;;;;;;26.50;26.87;98129.75;6245740;23;19922;-79
2022/11/09 11:26:19;;;;;;;6.07;4.88;;;;;;;25.93;26.57;98129.81;6245747;22;19978;-79
2022/11/09 11:29:00;;;;;;;5.63;4.55;;;;;;;26.89;27.07;98125.72;6246756;23;19930;-79
2022/11/09 11:31:27;;;;;;;4.30;3.53;;;;;;;28.81;24.56;98124.00;6246867;22;19914;-79
2022/11/09 11:33:54;;;;;;;7.38;4.80;;;;;;;27.68;26.42;98133.91;6246713;23;19907;-79
2022/11/09 11:36:27;;;;;;;5.82;4.55;;;;;;;26.58;27.59;98127.53;6246280;22;19908;-79
2022/11/09 11:39:17;;;;;;;6.00;4.55;;;;;;;27.99;26.88;98120.72;6245407;23;20019;-79
2022/11/09 11:41:53;;;;;;;5.88;4.93;;;;;;;26.77;28.66;98123.69;6246351;23;20568;-79